Time;durP1;ratioP1;P1;durP2;ratioP2;P2;SDS_P1;SDS_P2;PMS_P1;PMS_P2;Temp;Humidity;BMP_temperature;BMP_pressure;BME280_temperature;BME280_humidity;BME280_pressure;Samples;Min_cycle;Max_cycle;Signal;HPM_P1;HPM_P2
2023/05/05 00:00:52;;;;;;;5.95;4.55;;;;;;;15.94;52.03;100129.09;5052482;28;20529;-58
2023/05/05 00:03:20;;;;;;;5.75;4.38;;;;;;;15.89;51.49;100129.34;5052639;28;20057;-58
2023/05/05 00:05:48;;;;;;;5.63;4.03;;;;;;;15.90;51.71;100130.19;5052603;28;20486;-58
2023/05/05 00:08:15;;;;;;;6.65;4.93;;;;;;;15.89;52.14;100128.53;5052265;28;20049;-58
2023/05/05 00:10:45;;;;;;;7.78;4.15;;;;;;;15.91;51.41;100126.19;5052478;28;20056;-58
2023/05/05 00:13:15;;;;;;;;;;;;;;;15.90;51.42;100130.19;5053359;28;20053;-58
2023/05/05 00:15:43;;;;;;;7.10;4.10;;;;;;;15.88;51.12;100133.34;5052143;28;19925;-58
2023/05/05 00:18:11;;;;;;;5.25;4.38;;;;;;;15.87;52.16;100130.88;5052643;28;20501;-58
2023/05/05 00:20:39;;;;;;;6.05;4.32;;;;;;;15.87;51.50;100123.25;5052567;28;20053;-58
2023/05/05 00:23:06;;;;;;;4.70;4.00;;;;;;;15.89;52.07;100125.72;5052394;28;20057;-58
2023/05/05 00:25:33;;;;;;;4.68;3.50;;;;;;;15.87;52.08;100120.44;5051996;28;20414;-58
2023/05/05 00:28:02;;;;;;;5.57;3.92;;;;;;;15.88;51.76;100115.69;5052629;28;20045;-59
2023/05/05 00:30:29;;;;;;;5.07;4.03;;;;;;;15.86;51.02;100121.66;5052319;28;20406;-58
2023/05/05 00:32:57;;;;;;;3.97;3.50;;;;;;;15.89;51.11;100114.50;5052444;28;20061;-59
2023/05/05 00:35:25;;;;;;;6.78;3.85;;;;;;;15.90;51.25;100121.75;5052009;28;20063;-58
2023/05/05 00:37:53;;;;;;;5.53;4.10;;;;;;;15.88;51.97;100110.06;5052431;28;20084;-58
2023/05/05 00:40:20;;;;;;;5.15;3.50;;;;;;;15.89;50.83;100111.69;5052239;28;20406;-58
2023/05/05 00:42:49;;;;;;;4.53;3.80;;;;;;;15.89;51.74;100104.06;5051985;28;20059;-59
2023/05/05 00:45:19;;;;;;;4.22;3.80;;;;;;;15.90;50.85;100102.91;5052393;28;20075;-58
2023/05/05 00:47:48;;;;;;;6.82;3.92;;;;;;;15.90;51.88;100110.50;5051902;28;20053;-58
2023/05/05 00:50:23;;;;;;;7.45;3.85;;;;;;;15.90;51.38;100104.91;5052171;28;20060;-58
2023/05/05 00:52:54;;;;;;;5.80;3.90;;;;;;;15.91;52.54;100100.91;5051889;28;20053;-58
2023/05/05 00:55:22;;;;;;;6.00;4.22;;;;;;;15.91;52.58;100093.28;5056100;28;20053;-58
2023/05/05 00:57:49;;;;;;;4.57;3.70;;;;;;;15.90;51.70;100105.72;5056046;28;20049;-59
2023/05/05 01:00:18;;;;;;;6.15;4.15;;;;;;;15.91;52.47;100103.72;5055734;28;20481;-59
2023/05/05 01:02:45;;;;;;;5.27;3.87;;;;;;;15.95;52.62;100099.00;5055777;28;20053;-59
2023/05/05 01:05:14;;;;;;;5.93;3.70;;;;;;;15.98;52.28;100096.31;5055581;28;20474;-59
2023/05/05 01:07:46;;;;;;;;;;;;;;;15.93;52.12;100095.75;5056186;28;20049;-58
2023/05/05 01:10:23;;;;;;;4.30;3.60;;;;;;;15.96;52.86;100101.47;5055677;28;19924;-58
2023/05/05 01:13:02;;;;;;;4.10;3.70;;;;;;;15.98;52.73;100110.34;5055368;28;20489;-58
2023/05/05 01:15:34;;;;;;;5.22;3.83;;;;;;;16.01;51.97;100109.63;5055315;28;20063;-58
2023/05/05 01:18:20;;;;;;;7.07;4.15;;;;;;;16.04;52.36;100102.44;5055495;28;20508;-58
2023/05/05 01:20:53;;;;;;;4.32;3.92;;;;;;;16.08;51.98;100102.56;5055544;28;20053;-59
2023/05/05 01:23:54;;;;;;;6.10;4.25;;;;;;;15.99;52.51;100095.09;5055633;28;20053;-59
2023/05/05 01:26:41;;;;;;;7.75;3.80;;;;;;;15.98;52.44;100098.28;5055360;28;20065;-58
2023/05/05 01:29:43;;;;;;;6.20;3.78;;;;;;;15.98;52.90;100095.47;5055543;28;20053;-58
2023/05/05 01:32:14;;;;;;;5.35;4.20;;;;;;;16.00;52.82;100095.91;5055459;28;20524;-59
2023/05/05 01:34:48;;;;;;;6.00;3.88;;;;;;;16.05;52.65;100095.66;5054874;28;20053;-58
2023/05/05 01:37:22;;;;;;;4.65;3.78;;;;;;;16.10;53.26;100094.56;5055379;28;20049;-58
2023/05/05 01:39:52;;;;;;;4.68;4.18;;;;;;;16.10;53.54;100103.81;5054809;28;20059;-59
2023/05/05 01:42:22;;;;;;;7.82;3.80;;;;;;;16.17;53.45;100092.78;5055473;28;20071;-58
2023/05/05 01:44:51;;;;;;;4.90;4.10;;;;;;;16.22;53.36;100089.69;5054763;28;20060;-59
2023/05/05 01:47:22;;;;;;;6.18;3.88;;;;;;;16.24;52.78;100095.75;5055057;28;20053;-59
2023/05/05 01:49:50;;;;;;;4.20;3.72;;;;;;;16.31;52.73;100088.69;5054754;28;20048;-59
2023/05/05 01:52:20;;;;;;;5.43;4.00;;;;;;;16.33;52.92;100091.97;5055240;28;20063;-58
2023/05/05 01:54:48;;;;;;;5.40;3.95;;;;;;;16.37;52.89;100095.69;5054445;28;20056;-59
2023/05/05 01:57:18;;;;;;;4.93;3.47;;;;;;;16.37;52.32;100098.50;5054958;28;20060;-59
2023/05/05 01:59:45;;;;;;;4.75;3.28;;;;;;;16.43;51.17;100092.22;5054418;28;20057;-58
2023/05/05 02:02:14;;;;;;;5.53;3.88;;;;;;;16.48;51.16;100101.56;5054885;28;20056;-58
2023/05/05 02:04:45;;;;;;;5.22;3.75;;;;;;;16.51;51.24;100093.22;5053764;28;20060;-58
2023/05/05 02:07:16;;;;;;;4.43;3.90;;;;;;;16.55;52.36;100105.38;5054604;28;20060;-59
2023/05/05 02:09:45;;;;;;;3.80;3.22;;;;;;;16.58;52.12;100104.63;5054638;28;20057;-59
2023/05/05 02:12:13;;;;;;;4.72;3.55;;;;;;;16.61;51.41;100108.75;5054834;28;20466;-59
2023/05/05 02:14:42;;;;;;;6.80;3.47;;;;;;;16.64;49.59;100108.00;5054031;28;20060;-58
2023/05/05 02:17:11;;;;;;;5.13;3.03;;;;;;;16.77;48.95;100105.88;5054636;28;20053;-58
2023/05/05 02:19:40;;;;;;;3.88;3.45;;;;;;;16.81;49.67;100109.63;5054298;28;20402;-59
2023/05/05 02:22:09;;;;;;;6.13;3.55;;;;;;;16.85;50.03;100113.34;5054373;28;20075;-58
2023/05/05 02:24:36;;;;;;;4.20;3.40;;;;;;;16.88;48.57;100108.97;5054004;28;20060;-59
2023/05/05 02:27:07;;;;;;;4.32;3.00;;;;;;;16.91;48.37;100117.50;5054407;28;20060;-58
2023/05/05 02:29:39;;;;;;;4.47;3.47;;;;;;;16.88;49.16;100121.03;5053787;28;20049;-58
2023/05/05 02:32:11;;;;;;;4.47;3.53;;;;;;;16.88;48.77;100120.25;5054156;28;20057;-58
2023/05/05 02:34:40;;;;;;;6.13;3.40;;;;;;;16.87;48.19;100122.25;5053784;28;20052;-58
2023/05/05 02:37:12;;;;;;;5.78;3.72;;;;;;;16.85;48.19;100124.59;5054081;28;20049;-58
2023/05/05 02:39:45;;;;;;;3.75;3.00;;;;;;;16.86;47.89;100128.22;5053987;28;20053;-58
2023/05/05 02:42:18;;;;;;;5.20;2.60;;;;;;;16.84;47.75;100128.63;5053999;28;20053;-59
2023/05/05 02:44:52;;;;;;;3.55;2.80;;;;;;;16.81;47.65;100124.50;5053604;28;20057;-58
2023/05/05 02:47:20;;;;;;;3.90;2.92;;;;;;;16.76;48.02;100132.41;5053888;28;20053;-58
2023/05/05 02:49:47;;;;;;;4.35;3.00;;;;;;;16.73;49.94;100131.09;5053938;28;20060;-58
2023/05/05 02:52:16;;;;;;;5.18;3.10;;;;;;;16.66;49.76;100133.75;5053891;28;20056;-59
2023/05/05 02:54:44;;;;;;;3.77;3.30;;;;;;;16.62;49.61;100133.66;5053432;28;20053;-59
2023/05/05 02:57:16;;;;;;;3.20;2.90;;;;;;;16.61;48.50;100146.09;5053734;28;20057;-58
2023/05/05 02:59:50;;;;;;;4.38;2.72;;;;;;;16.56;49.35;100135.13;5053638;28;20482;-58
2023/05/05 03:02:27;;;;;;;3.92;3.20;;;;;;;16.56;48.75;100135.13;5053513;28;20064;-58
2023/05/05 03:05:02;;;;;;;4.47;3.10;;;;;;;16.51;49.62;100143.84;5053537;28;20068;-58
2023/05/05 03:07:38;;;;;;;5.32;3.03;;;;;;;16.43;50.42;100147.66;5053493;28;20053;-58
2023/05/05 03:10:12;;;;;;;4.47;3.15;;;;;;;16.38;50.07;100140.31;5053181;28;20059;-58
2023/05/05 03:12:45;;;;;;;4.00;3.35;;;;;;;16.36;50.16;100144.66;5053069;28;20059;-58
2023/05/05 03:15:14;;;;;;;4.68;3.25;;;;;;;16.32;51.25;100138.13;5053059;28;20064;-58
2023/05/05 03:17:42;;;;;;;4.72;3.25;;;;;;;16.28;50.79;100145.66;5052880;28;20056;-58
2023/05/05 03:20:12;;;;;;;5.88;3.20;;;;;;;16.24;50.33;100151.97;5053029;28;20044;-58
2023/05/05 03:22:44;;;;;;;6.72;4.47;;;;;;;16.23;51.52;100152.31;5053110;28;20410;-59
2023/05/05 03:25:11;;;;;;;4.82;3.10;;;;;;;16.18;51.35;100159.03;5053054;28;20053;-58
2023/05/05 03:27:38;;;;;;;4.20;3.10;;;;;;;16.17;51.24;100168.66;5053062;28;20056;-58
2023/05/05 03:30:07;;;;;;;5.18;3.35;;;;;;;16.14;51.19;100160.13;5052894;28;20056;-57
2023/05/05 03:32:34;;;;;;;5.15;3.95;;;;;;;16.11;50.50;100174.91;5051731;28;20052;-59
2023/05/05 03:35:03;;;;;;;5.18;3.53;;;;;;;16.07;50.65;100162.75;5047984;28;20053;-59
2023/05/05 03:37:30;;;;;;;6.18;4.38;;;;;;;16.06;51.41;100166.72;5050742;28;20053;-59
2023/05/05 03:39:59;;;;;;;5.72;3.60;;;;;;;16.07;51.59;100163.56;5052595;28;20048;-58
2023/05/05 03:42:26;;;;;;;5.82;4.07;;;;;;;16.07;52.42;100168.38;5052436;28;20061;-59
2023/05/05 03:44:53;;;;;;;5.45;3.60;;;;;;;16.02;52.96;100164.63;5052385;28;20049;-58
2023/05/05 03:47:23;;;;;;;4.68;3.70;;;;;;;16.02;52.50;100166.59;5052605;28;20056;-58
2023/05/05 03:49:50;;;;;;;;;;;;;;;16.02;52.49;100170.25;5052738;28;20056;-58
2023/05/05 03:52:17;;;;;;;4.93;3.75;;;;;;;16.10;52.84;100167.63;5052239;28;20401;-58
2023/05/05 03:54:48;;;;;;;6.75;4.60;;;;;;;16.18;53.56;100172.28;5052754;28;20049;-58
2023/05/05 03:57:18;;;;;;;6.35;4.22;;;;;;;16.24;53.61;100174.47;5052883;28;20478;-58
2023/05/05 03:59:45;;;;;;;5.32;4.72;;;;;;;16.32;54.20;100169.84;5052736;28;20053;-58
2023/05/05 04:02:15;;;;;;;7.32;4.72;;;;;;;16.41;54.11;100166.88;5052569;28;20064;-58
2023/05/05 04:04:43;;;;;;;5.38;4.07;;;;;;;16.46;54.11;100166.59;5052367;28;20053;-58
2023/05/05 04:07:10;;;;;;;5.53;4.50;;;;;;;16.46;54.42;100165.78;5052714;28;20053;-58
2023/05/05 04:09:43;;;;;;;6.13;5.22;;;;;;;16.53;54.65;100163.16;5052149;28;20041;-58
2023/05/05 04:12:10;;;;;;;7.57;5.10;;;;;;;16.54;54.51;100159.16;5052126;28;20410;-57
2023/05/05 04:14:39;;;;;;;7.38;5.30;;;;;;;16.57;55.08;100170.50;5052235;28;20048;-58
2023/05/05 04:17:06;;;;;;;5.80;5.13;;;;;;;16.57;54.93;100161.25;5052132;28;20056;-57
2023/05/05 04:19:33;;;;;;;6.78;4.90;;;;;;;16.57;55.49;100172.50;5052608;28;20460;-57
2023/05/05 04:22:01;;;;;;;6.28;4.70;;;;;;;16.60;55.05;100169.75;5052570;28;20057;-58
2023/05/05 04:24:29;;;;;;;8.60;7.25;;;;;;;16.60;56.45;100166.16;5052350;28;20053;-57
2023/05/05 04:26:57;;;;;;;8.50;6.70;;;;;;;16.59;55.95;100164.53;5052566;28;20068;-58
2023/05/05 04:29:24;;;;;;;9.07;6.05;;;;;;;16.63;56.13;100173.84;5054444;28;20053;-58
2023/05/05 04:31:53;;;;;;;7.63;5.65;;;;;;;16.63;56.04;100162.59;5056439;28;20053;-57
2023/05/05 04:34:21;;;;;;;7.18;6.07;;;;;;;16.66;56.89;100183.56;5056260;28;20478;-57
2023/05/05 04:36:48;;;;;;;8.20;6.60;;;;;;;16.71;56.27;100174.84;5056215;28;20378;-58
2023/05/05 04:39:15;;;;;;;8.75;6.28;;;;;;;16.74;56.72;100188.19;5055872;28;20045;-58
2023/05/05 04:41:42;;;;;;;8.40;5.55;;;;;;;16.81;56.78;100180.75;5056269;28;20056;-58
2023/05/05 04:44:10;;;;;;;6.53;5.88;;;;;;;16.88;56.69;100185.75;5056108;28;20485;-58
2023/05/05 04:46:37;;;;;;;7.80;5.95;;;;;;;16.93;56.75;100185.50;5056122;28;20056;-59
2023/05/05 04:49:05;;;;;;;6.63;5.88;;;;;;;17.00;56.56;100188.47;5055703;28;20049;-58
2023/05/05 04:51:33;;;;;;;7.55;6.30;;;;;;;17.04;56.42;100188.56;5056080;28;20057;-58
2023/05/05 04:54:00;;;;;;;11.02;6.57;;;;;;;17.13;56.57;100179.91;5055877;28;20056;-58
2023/05/05 04:56:27;;;;;;;8.35;6.45;;;;;;;17.17;56.54;100192.06;5055856;28;20064;-58
2023/05/05 04:58:54;;;;;;;6.85;5.57;;;;;;;17.30;56.77;100196.38;5055504;28;20051;-59
2023/05/05 05:01:22;;;;;;;7.07;5.63;;;;;;;17.41;56.51;100193.84;5055733;28;20049;-58
2023/05/05 05:03:49;;;;;;;8.88;6.05;;;;;;;17.50;56.09;100204.91;5055555;28;20516;-57
2023/05/05 05:06:18;;;;;;;8.25;6.22;;;;;;;17.53;56.15;100204.97;5055604;28;20144;-58
2023/05/05 05:08:45;;;;;;;6.33;5.73;;;;;;;17.62;56.60;100204.78;5055245;28;20053;-58
2023/05/05 05:11:12;;;;;;;11.10;6.75;;;;;;;17.71;56.25;100198.91;5055500;28;20052;-58
2023/05/05 05:13:40;;;;;;;7.35;6.18;;;;;;;17.77;56.78;100206.69;5055288;28;20049;-58
2023/05/05 05:16:08;;;;;;;7.13;6.15;;;;;;;17.85;56.77;100199.25;5055408;28;20403;-58
2023/05/05 05:18:35;;;;;;;8.52;6.80;;;;;;;17.96;56.29;100200.28;5054962;28;20052;-58
2023/05/05 05:21:02;;;;;;;9.23;7.65;;;;;;;18.10;55.51;100208.22;5055360;28;20060;-59
2023/05/05 05:23:31;;;;;;;9.30;6.93;;;;;;;18.28;54.85;100213.38;5055141;28;20056;-58
2023/05/05 05:25:58;;;;;;;10.30;7.73;;;;;;;18.43;54.44;100220.91;5055239;28;20052;-58
2023/05/05 05:28:25;;;;;;;10.93;7.60;;;;;;;18.64;53.57;100207.19;5054895;28;20053;-59
2023/05/05 05:30:53;;;;;;;12.10;8.60;;;;;;;18.77;53.57;100221.97;5054854;28;20059;-58
2023/05/05 05:33:20;;;;;;;10.35;7.70;;;;;;;18.96;53.47;100215.47;5054919;28;20076;-59
2023/05/05 05:35:47;;;;;;;10.52;8.27;;;;;;;19.06;52.89;100208.34;5055062;28;20053;-58
2023/05/05 05:38:16;;;;;;;10.25;7.82;;;;;;;19.22;53.14;100208.19;5054666;28;20064;-59
2023/05/05 05:40:45;;;;;;;11.82;9.13;;;;;;;19.33;52.58;100209.16;5053595;28;20475;-58
2023/05/05 05:43:12;;;;;;;11.07;8.88;;;;;;;19.44;52.55;100217.78;5054983;28;20053;-59
2023/05/05 05:45:40;;;;;;;11.75;8.98;;;;;;;19.55;51.83;100227.25;5054519;28;20500;-59
2023/05/05 05:48:07;;;;;;;10.52;8.63;;;;;;;19.68;52.08;100219.34;5054899;28;20049;-59
2023/05/05 05:50:35;;;;;;;10.70;9.27;;;;;;;19.82;52.31;100225.25;5054394;28;20064;-58
2023/05/05 05:53:02;;;;;;;11.23;9.43;;;;;;;19.92;51.86;100223.72;5054519;28;20063;-59
2023/05/05 05:55:29;;;;;;;13.02;9.98;;;;;;;20.00;51.81;100219.78;5054677;28;20053;-58
2023/05/05 05:57:58;;;;;;;10.13;9.02;;;;;;;20.08;50.99;100227.16;5054623;28;20049;-58
2023/05/05 06:00:25;;;;;;;12.00;9.47;;;;;;;20.21;51.14;100229.75;5054303;28;20394;-59
2023/05/05 06:02:53;;;;;;;12.30;9.32;;;;;;;20.30;50.52;100229.44;5054347;28;20049;-58
2023/05/05 06:05:20;;;;;;;10.73;9.00;;;;;;;20.45;49.95;100234.03;5054025;28;20056;-58
2023/05/05 06:07:47;;;;;;;11.93;8.27;;;;;;;20.58;49.83;100238.28;5054539;28;20409;-58
2023/05/05 06:10:15;;;;;;;12.82;9.23;;;;;;;20.66;49.95;100234.31;5053820;28;20056;-57
2023/05/05 06:12:42;;;;;;;12.15;9.13;;;;;;;20.82;49.11;100236.06;5054336;28;20410;-59
2023/05/05 06:15:11;;;;;;;10.20;9.20;;;;;;;20.98;49.45;100239.47;5053676;28;20060;-59
2023/05/05 06:17:38;;;;;;;11.48;8.63;;;;;;;21.09;49.14;100243.19;5053908;28;20064;-58
2023/05/05 06:20:07;;;;;;;12.40;9.43;;;;;;;21.27;48.26;100242.50;5053958;28;20402;-59
2023/05/05 06:22:34;;;;;;;11.70;10.20;;;;;;;21.26;48.31;100238.84;5053650;28;20495;-58
2023/05/05 06:25:01;;;;;;;12.52;9.50;;;;;;;21.29;48.49;100254.25;5053883;28;20053;-58
2023/05/05 06:27:29;;;;;;;11.80;10.55;;;;;;;21.40;48.41;100249.50;5054127;28;20056;-59
2023/05/05 06:29:56;;;;;;;12.23;10.93;;;;;;;21.54;48.26;100248.00;5053734;28;20044;-58
2023/05/05 06:32:25;;;;;;;11.68;9.90;;;;;;;21.61;48.48;100248.06;5053812;28;20383;-58
2023/05/05 06:34:53;;;;;;;14.27;11.40;;;;;;;21.63;48.23;100245.63;5053685;28;20064;-58
2023/05/05 06:37:20;;;;;;;13.75;12.25;;;;;;;21.62;47.93;100241.16;5052981;28;20059;-58
2023/05/05 06:39:47;;;;;;;15.68;11.32;;;;;;;21.66;48.30;100250.50;5053781;28;20406;-58
2023/05/05 06:42:15;;;;;;;12.45;11.25;;;;;;;21.78;48.07;100258.69;5053211;28;20060;-58
2023/05/05 06:44:42;;;;;;;12.63;10.50;;;;;;;21.83;48.05;100249.78;5053742;28;20080;-59
2023/05/05 06:47:09;;;;;;;12.63;11.32;;;;;;;21.95;48.31;100259.16;5053465;28;20057;-59
2023/05/05 06:49:38;;;;;;;13.90;11.57;;;;;;;21.98;47.31;100266.88;5053388;28;20064;-59
2023/05/05 06:52:07;;;;;;;13.85;11.18;;;;;;;22.18;47.37;100259.69;5052916;28;20056;-58
2023/05/05 06:54:34;;;;;;;10.48;9.32;;;;;;;22.15;47.03;100254.78;5053409;28;20049;-58
2023/05/05 06:57:01;;;;;;;14.43;10.95;;;;;;;22.33;46.58;100259.75;5053184;28;20053;-58
2023/05/05 06:59:28;;;;;;;12.43;10.77;;;;;;;22.46;45.60;100266.69;5053349;28;20059;-58
2023/05/05 07:01:56;;;;;;;10.80;9.15;;;;;;;22.58;45.76;100260.66;5053192;28;20406;-58
2023/05/05 07:04:23;;;;;;;15.20;10.27;;;;;;;22.78;45.66;100263.09;5053139;28;20053;-58
2023/05/05 07:06:53;;;;;;;12.50;9.98;;;;;;;22.93;44.85;100256.25;5053195;28;20057;-58
2023/05/05 07:09:21;;;;;;;8.10;7.30;;;;;;;23.02;43.21;100255.88;5053188;28;20509;-58
2023/05/05 07:11:48;;;;;;;10.43;8.55;;;;;;;23.20;43.46;100268.03;5052874;28;20049;-58
2023/05/05 07:14:15;;;;;;;9.45;8.10;;;;;;;23.35;42.94;100250.97;5052612;28;20057;-58
2023/05/05 07:16:44;;;;;;;10.90;8.63;;;;;;;23.47;43.56;100248.53;5053183;28;20056;-58
2023/05/05 07:19:11;;;;;;;10.55;8.77;;;;;;;23.72;43.47;100259.06;5053385;28;20056;-58
2023/05/05 07:21:38;;;;;;;9.52;8.45;;;;;;;24.23;42.41;100257.69;5052710;28;20048;-58
2023/05/05 07:24:07;;;;;;;9.57;7.95;;;;;;;24.71;40.66;100262.75;5053168;28;20482;-58
2023/05/05 07:26:34;;;;;;;9.45;8.50;;;;;;;25.11;40.17;100263.28;5053117;28;20066;-58
2023/05/05 07:29:03;;;;;;;10.25;8.43;;;;;;;25.54;39.34;100258.47;5053081;28;20375;-58
2023/05/05 07:31:30;;;;;;;9.70;8.63;;;;;;;26.07;37.13;100257.06;5052802;28;20120;-58
2023/05/05 07:33:57;;;;;;;9.43;7.97;;;;;;;26.65;36.31;100260.81;5052986;28;20057;-58
2023/05/05 07:36:26;;;;;;;11.00;7.10;;;;;;;27.36;35.19;100263.00;5053075;28;20060;-57
2023/05/05 07:38:54;;;;;;;11.07;7.32;;;;;;;27.85;34.84;100264.13;5052861;28;20059;-59
2023/05/05 07:41:22;;;;;;;7.40;6.63;;;;;;;28.43;33.92;100254.38;5051986;28;20045;-59
2023/05/05 07:43:50;;;;;;;7.03;6.00;;;;;;;28.91;32.37;100261.47;5052218;28;20063;-60
2023/05/05 07:46:18;;;;;;;7.22;6.53;;;;;;;29.37;31.17;100259.56;5052101;28;20063;-60
2023/05/05 07:48:45;;;;;;;7.65;6.68;;;;;;;29.69;31.98;100258.72;5052522;28;20053;-59
2023/05/05 07:51:12;;;;;;;6.88;6.13;;;;;;;30.12;30.46;100265.34;5052594;28;20053;-59
2023/05/05 07:53:41;;;;;;;6.43;5.72;;;;;;;30.33;29.49;100261.84;5052758;28;20501;-60
2023/05/05 07:56:08;;;;;;;7.55;5.50;;;;;;;30.48;29.93;100270.84;5052447;28;20057;-59
2023/05/05 07:58:37;;;;;;;5.20;4.68;;;;;;;30.86;29.60;100275.03;5052802;28;20482;-59
2023/05/05 08:01:05;;;;;;;5.88;5.20;;;;;;;31.02;29.23;100277.81;5052639;28;20053;-59
2023/05/05 08:03:32;;;;;;;8.38;4.50;;;;;;;30.98;28.61;100282.88;5053383;28;20056;-59
2023/05/05 08:06:07;;;;;;;5.60;4.38;;;;;;;31.30;28.42;100283.88;5056700;28;20053;-59
2023/05/05 08:08:34;;;;;;;5.57;5.07;;;;;;;31.98;27.51;100287.28;5056877;28;20049;-59
2023/05/05 08:11:02;;;;;;;5.25;4.38;;;;;;;32.04;27.73;100282.56;5056069;28;20048;-59
2023/05/05 08:13:30;;;;;;;5.65;5.03;;;;;;;31.93;27.45;100288.69;5056244;28;20052;-58
2023/05/05 08:15:58;;;;;;;5.93;5.27;;;;;;;32.10;27.15;100285.66;5055972;28;20049;-59
2023/05/05 08:18:26;;;;;;;4.53;3.88;;;;;;;32.04;27.11;100296.97;5056546;28;20057;-59
2023/05/05 08:20:53;;;;;;;4.60;4.20;;;;;;;32.07;27.00;100298.13;5056478;28;20505;-59
2023/05/05 08:23:21;;;;;;;4.55;3.63;;;;;;;31.87;27.44;100310.72;5056467;28;20057;-59
2023/05/05 08:25:49;;;;;;;4.80;4.35;;;;;;;32.10;26.79;100297.97;5056467;28;20509;-59
2023/05/05 08:28:16;;;;;;;5.63;4.90;;;;;;;32.31;26.22;100302.13;5056326;28;20049;-59
2023/05/05 08:30:44;;;;;;;4.75;4.25;;;;;;;32.91;26.27;100295.31;5056323;28;20440;-57
2023/05/05 08:33:13;;;;;;;5.13;4.60;;;;;;;33.45;25.35;100295.19;5056172;28;20055;-58
2023/05/05 08:35:40;;;;;;;5.95;4.80;;;;;;;34.09;24.50;100294.47;5055881;28;20391;-59
2023/05/05 08:38:07;;;;;;;6.15;4.80;;;;;;;34.21;24.68;100292.72;5057183;28;20064;-59
2023/05/05 08:40:37;;;;;;;5.35;4.80;;;;;;;34.36;24.67;100288.69;5055796;28;20060;-59
2023/05/05 08:43:04;;;;;;;5.60;4.13;;;;;;;34.06;24.20;100304.91;5056138;28;20057;-58
2023/05/05 08:45:32;;;;;;;5.88;4.60;;;;;;;34.10;24.79;100298.94;5056087;28;20491;-59
2023/05/05 08:48:01;;;;;;;4.80;4.30;;;;;;;34.27;24.68;100300.28;5056094;28;20401;-58
2023/05/05 08:50:31;;;;;;;6.25;4.60;;;;;;;34.90;23.37;100297.72;5055968;28;20410;-59
2023/05/05 08:53:09;;;;;;;6.47;4.70;;;;;;;35.72;22.97;100292.00;5055633;28;20053;-57
2023/05/05 08:55:45;;;;;;;6.17;4.30;;;;;;;35.96;22.70;100289.06;5057864;28;20056;-58
2023/05/05 08:58:13;;;;;;;5.15;3.90;;;;;;;36.52;22.35;100286.47;5055804;28;20475;-58
2023/05/05 09:00:42;;;;;;;4.70;3.80;;;;;;;37.29;21.96;100299.13;5056131;28;20053;-57
2023/05/05 09:03:11;;;;;;;3.80;3.50;;;;;;;37.79;20.31;100296.13;5055546;28;20049;-57
2023/05/05 09:05:43;;;;;;;4.75;3.75;;;;;;;37.60;20.09;100301.44;5055560;28;20049;-58
2023/05/05 09:08:11;;;;;;;4.22;3.75;;;;;;;37.18;20.31;100293.94;5055565;28;20505;-58
2023/05/05 09:10:40;;;;;;;4.97;4.47;;;;;;;37.35;20.04;100289.16;5056161;28;20053;-58
2023/05/05 09:13:08;;;;;;;6.03;4.18;;;;;;;37.66;20.38;100295.72;5055565;28;20045;-58
2023/05/05 09:15:37;;;;;;;5.13;4.60;;;;;;;38.28;19.61;100281.91;5054794;28;20057;-58
2023/05/05 09:18:07;;;;;;;6.25;5.20;;;;;;;38.59;19.13;100292.81;5055498;28;20060;-58
2023/05/05 09:20:36;;;;;;;5.38;4.72;;;;;;;38.52;19.58;100282.44;5055439;28;20053;-58
2023/05/05 09:23:12;;;;;;;5.78;5.05;;;;;;;39.04;19.77;100280.75;5055434;28;20394;-58
2023/05/05 09:25:40;;;;;;;5.28;4.78;;;;;;;39.60;19.20;100277.41;5055233;28;20060;-58
2023/05/05 09:28:09;;;;;;;5.97;5.20;;;;;;;39.99;18.75;100286.34;5055007;28;20056;-58
2023/05/05 09:30:37;;;;;;;6.07;5.53;;;;;;;40.37;18.20;100275.31;5054959;28;20057;-58
2023/05/05 09:33:05;;;;;;;;;;;;;;;40.99;17.48;100289.94;5055745;28;20059;-58
2023/05/05 09:35:50;;;;;;;6.55;5.95;;;;;;;41.02;17.55;100280.13;5054888;28;19921;-58
2023/05/05 09:38:20;;;;;;;7.43;5.80;;;;;;;41.40;17.01;100286.44;5055217;28;20084;-58
2023/05/05 09:40:49;;;;;;;7.28;5.97;;;;;;;40.76;17.30;100281.22;5054629;28;20053;-57
2023/05/05 09:43:17;;;;;;;5.57;5.07;;;;;;;40.18;18.70;100289.59;5054922;28;20136;-58
2023/05/05 09:45:44;;;;;;;5.80;4.68;;;;;;;40.55;17.99;100292.34;5054585;28;20068;-57
2023/05/05 09:48:25;;;;;;;7.20;5.43;;;;;;;40.86;17.56;100302.16;5054893;28;20478;-58
2023/05/05 09:50:53;;;;;;;5.90;5.40;;;;;;;41.21;17.12;100303.78;5054632;28;20457;-58
2023/05/05 09:53:23;;;;;;;6.72;4.88;;;;;;;42.31;16.38;100298.56;5054603;28;20060;-58
2023/05/05 09:55:54;;;;;;;5.25;4.38;;;;;;;43.10;15.55;100286.28;5054444;28;20064;-58
2023/05/05 09:58:23;;;;;;;5.30;4.75;;;;;;;43.42;15.20;100298.19;5054520;28;20488;-58
2023/05/05 10:00:51;;;;;;;5.72;4.55;;;;;;;43.46;15.38;100294.97;5054437;28;20068;-58
2023/05/05 10:03:18;;;;;;;5.88;5.13;;;;;;;42.96;15.62;100282.41;5054449;28;20056;-58
2023/05/05 10:05:50;;;;;;;5.25;4.75;;;;;;;41.24;17.01;100287.28;5054506;28;20505;-58
2023/05/05 10:08:19;;;;;;;4.13;3.72;;;;;;;41.54;16.78;100279.50;5054226;28;20060;-58
2023/05/05 10:10:51;;;;;;;4.35;3.95;;;;;;;42.14;17.50;100278.19;5054179;28;20057;-58
2023/05/05 10:13:20;;;;;;;4.00;3.60;;;;;;;43.10;16.37;100275.34;5058470;28;20470;-58
2023/05/05 10:15:50;;;;;;;3.60;3.30;;;;;;;42.76;16.25;100271.91;5053748;28;20065;-58
2023/05/05 10:18:21;;;;;;;3.92;3.20;;;;;;;43.55;16.50;100280.69;5054240;28;20410;-58
2023/05/05 10:20:55;;;;;;;3.55;2.80;;;;;;;44.29;14.91;100271.75;5053963;28;20056;-59
2023/05/05 10:23:24;;;;;;;3.00;2.70;;;;;;;45.36;13.81;100266.19;5054190;28;20503;-59
2023/05/05 10:26:00;;;;;;;3.47;3.17;;;;;;;45.18;13.77;100268.66;5053155;28;20060;-59
2023/05/05 10:28:33;;;;;;;4.07;3.20;;;;;;;44.98;14.42;100263.41;5054163;28;20478;-59
2023/05/05 10:31:02;;;;;;;3.40;3.08;;;;;;;44.17;15.00;100264.47;5053699;28;20422;-59
2023/05/05 10:33:35;;;;;;;7.13;2.80;;;;;;;42.18;16.02;100273.63;5053787;28;20045;-59
2023/05/05 10:36:06;;;;;;;3.40;2.20;;;;;;;41.66;16.67;100264.84;5054138;28;20053;-59
2023/05/05 10:38:33;;;;;;;4.13;2.50;;;;;;;41.52;17.36;100260.91;5053835;28;20052;-59
2023/05/05 10:41:03;;;;;;;3.63;2.55;;;;;;;41.54;16.36;100250.25;5053408;28;20414;-59
2023/05/05 10:43:31;;;;;;;4.20;2.42;;;;;;;39.80;17.97;100241.47;5053237;28;20491;-59
2023/05/05 10:45:59;;;;;;;2.63;2.17;;;;;;;39.69;18.44;100242.19;5053462;28;20048;-59
2023/05/05 10:48:37;;;;;;;4.72;2.30;;;;;;;39.11;19.13;100245.34;5053558;28;20486;-59
2023/05/05 10:51:21;;;;;;;;;;;;;;;39.03;18.97;100239.19;5054109;28;20052;-59
2023/05/05 10:53:59;;;;;;;4.47;2.92;;;;;;;41.66;17.37;100227.63;5053403;28;19921;-59
2023/05/05 10:56:31;;;;;;;3.90;2.70;;;;;;;43.06;15.89;100227.16;5053618;28;20048;-59
2023/05/05 10:58:58;;;;;;;4.82;2.78;;;;;;;44.34;14.90;100215.06;5053669;28;20475;-59
2023/05/05 11:01:32;;;;;;;4.75;2.83;;;;;;;45.47;14.27;100218.91;5053099;28;20059;-59
2023/05/05 11:04:19;;;;;;;2.47;2.05;;;;;;;45.95;13.34;100215.97;5053278;28;20044;-59
2023/05/05 11:07:25;;;;;;;2.72;2.25;;;;;;;45.07;14.43;100209.25;5053364;28;20081;-59
2023/05/05 11:09:57;;;;;;;2.70;2.03;;;;;;;43.53;14.29;100215.94;5053445;28;20064;-59
2023/05/05 11:12:26;;;;;;;3.80;2.30;;;;;;;43.54;14.53;100214.59;5052948;28;20049;-58
2023/05/05 11:15:37;;;;;;;2.88;1.85;;;;;;;41.46;15.92;100214.13;5052416;28;20099;-58
2023/05/05 11:18:06;;;;;;;5.28;2.08;;;;;;;40.04;17.36;100200.97;5028632;28;20064;-58
2023/05/05 11:21:02;;;;;;;2.20;1.90;;;;;;;39.10;17.92;100197.13;5052645;28;20049;-58
2023/05/05 11:23:30;;;;;;;5.30;2.17;;;;;;;37.54;19.58;100193.78;5052971;28;20049;-58
2023/05/05 11:25:58;;;;;;;3.13;1.95;;;;;;;36.43;21.25;100194.53;5052945;28;20486;-58
2023/05/05 11:28:29;;;;;;;3.45;2.15;;;;;;;35.37;21.70;100188.25;5052595;28;20056;-58
2023/05/05 11:31:16;;;;;;;3.85;2.00;;;;;;;34.64;23.02;100187.38;5052922;28;20056;-58
2023/05/05 11:33:43;;;;;;;3.67;2.05;;;;;;;33.90;23.34;100184.66;5052838;28;20127;-58
2023/05/05 11:36:12;;;;;;;2.42;1.52;;;;;;;33.68;23.67;100181.13;5052796;28;20064;-58